Terminal Aerodrome Forecast
Issued by NWS Duluth, MN

Home | Current Version | Previous Version | Text Only | Print | Product List | Glossary On
Versions: 1 2 3 4 5 6 7 8 9 10 11 12 13 14 15 16 17 18 19 20 21 22 23 24 25 26 27 28 29 30
000
FTUS43 KDLH 271100
TAFDLH
TAF
KDLH 271121Z 2712/2812 01003KT P6SM OVC016
     FM271700 17005KT P6SM BKN020
     FM280100 19009KT P6SM SCT020 BKN080
     FM280900 18010KT P6SM BKN035 OVC060=

USA.gov is the U.S. government's official web portal to all federal, state and local government web resources and services.